Terminal Aerodrome Forecast
Issued by NWS

Home | Current Version | Previous Version | Text Only | Print | Product List | Glossary On
Versions: 1 2 3 4 5 6 7 8 9 10 11 12 13 14 15
326
FTUS44 KTSA 050532
TAFXNA
TAF
KXNA 050532Z 0506/0606 00000KT 1SM BR BKN003
      TEMPO 0506/0509 1/2SM FG BKN002
     FM051300 00000KT 2SM BR FEW003 BKN200
     FM051400 VRB02KT 5SM BR BKN200
     FM051800 16004KT P6SM BKN120
     FM052200 14008KT P6SM SCT030 BKN100=

USA.gov is the U.S. government's official web portal to all federal, state and local government web resources and services.